This is the latest recevied weather packets stored in our database for station/object EA4BCR. If no packets are shown the sender has not sent any weather packets the latest 10 day(s).
| Time | Temp. | Humidity | Pressure | Rain* | Wind** | Luminosity | Snow |
|---|---|---|---|---|---|---|---|
| 1787577011 | 27.22° C | 46% | 1011.7 hPa | - | - | - | - |
| 1787576411 | 27.22° C | 42% | 1011.8 hPa | - | - | - | - |
| 1787575811 | 26.11° C | 45% | 1012.4 hPa | - | - | - | - |
| 1787575212 | 26.11° C | 46% | 1012.3 hPa | - | - | - | - |
| 1787574611 | 25° C | 50% | 1012.8 hPa | - | - | - | - |
| 1787574011 | 24.44° C | 55% | 1013 hPa | - | - | - | - |
| 1787573411 | 23.33° C | 61% | 1013.7 hPa | - | - | - | - |
| 1787572811 | 23.33° C | 55% | 1013.5 hPa | - | - | - | - |
| 1787572211 | 23.33° C | 59% | 1013.7 hPa | - | - | - | - |
| 1787571611 | 23.89° C | 54% | 1013.3 hPa | - | - | - | - |
| 1787571011 | 24.44° C | 58% | 1013.1 hPa | - | - | - | - |
| 1787570411 | 23.89° C | 63% | 1013.3 hPa | - | - | - | - |
| 1787569811 | 22.22° C | 74% | 1013.7 hPa | - | - | - | - |
| 1787569211 | 22.22° C | 73% | 1013.8 hPa | - | - | - | - |
| 1787568611 | 20° C | 83% | 1014.5 hPa | - | - | - | - |
| 1787568011 | 21.11° C | 70% | 1014.6 hPa | - | - | - | - |
| 1787567411 | 25.56° C | 38% | 1012.8 hPa | - | - | - | - |
| 1787566811 | 26.11° C | 39% | 1012.1 hPa | - | - | - | - |
| 1787566211 | 25° C | 44% | 1012.5 hPa | - | - | - | - |
| 1787565611 | 24.44° C | 44% | 1013 hPa | - | - | - | - |
| 1787565011 | 25° C | 44% | 1012.7 hPa | - | - | - | - |
| 1787564411 | 25° C | 46% | 1012.8 hPa | - | - | - | - |
| 1787563811 | 23.89° C | 48% | 1013.5 hPa | - | - | - | - |
| 1787563211 | 23.89° C | 48% | 1013.3 hPa | - | - | - | - |
| 1787562611 | 23.89° C | 50% | 1013.3 hPa | - | - | - | - |
* Rain since midnight (hover to see other rain measurements)
** Current wind speed in m/s (hover to see current wind gust speed)